sensor_id;sensor_type;location;lat;lon;timestamp;temperature;humidity
19680;DHT22;9989;48.962;9.182;2023-08-06T00:02:23;17.80;99.90
19680;DHT22;9989;48.962;9.182;2023-08-06T00:04:49;17.80;99.90
19680;DHT22;9989;48.962;9.182;2023-08-06T00:07:15;17.80;99.90
19680;DHT22;9989;48.962;9.182;2023-08-06T00:09:40;17.80;99.90
19680;DHT22;9989;48.962;9.182;2023-08-06T00:12:06;17.80;99.90
19680;DHT22;9989;48.962;9.182;2023-08-06T00:14:32;17.80;99.90
19680;DHT22;9989;48.962;9.182;2023-08-06T00:16:58;17.70;99.90
19680;DHT22;9989;48.962;9.182;2023-08-06T00:19:23;17.70;99.90
19680;DHT22;9989;48.962;9.182;2023-08-06T00:21:49;17.70;99.90
19680;DHT22;9989;48.962;9.182;2023-08-06T00:24:15;17.70;99.90
19680;DHT22;9989;48.962;9.182;2023-08-06T00:26:40;17.60;99.90
19680;DHT22;9989;48.962;9.182;2023-08-06T00:29:06;17.60;99.90
19680;DHT22;9989;48.962;9.182;2023-08-06T00:31:32;17.60;99.90
19680;DHT22;9989;48.962;9.182;2023-08-06T00:33:57;17.60;99.90
19680;DHT22;9989;48.962;9.182;2023-08-06T00:36:23;17.60;99.90
19680;DHT22;9989;48.962;9.182;2023-08-06T00:38:49;17.50;99.90
19680;DHT22;9989;48.962;9.182;2023-08-06T00:41:15;17.50;99.90
19680;DHT22;9989;48.962;9.182;2023-08-06T00:43:40;17.50;99.90
19680;DHT22;9989;48.962;9.182;2023-08-06T00:46:06;17.50;99.90
19680;DHT22;9989;48.962;9.182;2023-08-06T00:48:32;17.50;99.90
19680;DHT22;9989;48.962;9.182;2023-08-06T00:50:59;17.50;99.90
19680;DHT22;9989;48.962;9.182;2023-08-06T00:53:25;17.50;99.90
19680;DHT22;9989;48.962;9.182;2023-08-06T00:55:51;17.60;99.90
19680;DHT22;9989;48.962;9.182;2023-08-06T00:58:17;17.60;99.90
19680;DHT22;9989;48.962;9.182;2023-08-06T01:00:43;17.60;99.90
19680;DHT22;9989;48.962;9.182;2023-08-06T01:03:09;17.60;99.90
19680;DHT22;9989;48.962;9.182;2023-08-06T01:05:35;17.60;99.90
19680;DHT22;9989;48.962;9.182;2023-08-06T01:13:47;17.60;99.90
19680;DHT22;9989;48.962;9.182;2023-08-06T01:16:19;17.60;99.90
19680;DHT22;9989;48.962;9.182;2023-08-06T01:18:47;17.60;99.90
19680;DHT22;9989;48.962;9.182;2023-08-06T01:21:15;17.60;99.90
19680;DHT22;9989;48.962;9.182;2023-08-06T01:23:41;17.60;99.90
19680;DHT22;9989;48.962;9.182;2023-08-06T01:26:17;17.60;99.90
19680;DHT22;9989;48.962;9.182;2023-08-06T01:31:37;17.60;99.90
19680;DHT22;9989;48.962;9.182;2023-08-06T01:34:06;17.60;99.90
19680;DHT22;9989;48.962;9.182;2023-08-06T01:36:32;17.50;99.90
19680;DHT22;9989;48.962;9.182;2023-08-06T01:38:59;17.50;99.90
19680;DHT22;9989;48.962;9.182;2023-08-06T01:41:25;17.50;99.90
19680;DHT22;9989;48.962;9.182;2023-08-06T01:43:51;17.50;99.90
19680;DHT22;9989;48.962;9.182;2023-08-06T01:46:16;17.50;99.90
19680;DHT22;9989;48.962;9.182;2023-08-06T01:48:43;17.50;99.90
19680;DHT22;9989;48.962;9.182;2023-08-06T01:51:08;17.50;99.90
19680;DHT22;9989;48.962;9.182;2023-08-06T01:53:34;17.50;99.90
19680;DHT22;9989;48.962;9.182;2023-08-06T01:56:00;17.50;99.90
19680;DHT22;9989;48.962;9.182;2023-08-06T01:58:27;17.50;99.90
19680;DHT22;9989;48.962;9.182;2023-08-06T02:00:52;17.50;99.90
19680;DHT22;9989;48.962;9.182;2023-08-06T02:03:18;17.50;99.90
19680;DHT22;9989;48.962;9.182;2023-08-06T02:05:43;17.50;99.90
19680;DHT22;9989;48.962;9.182;2023-08-06T02:08:09;17.40;99.90
19680;DHT22;9989;48.962;9.182;2023-08-06T02:10:35;17.40;99.90
19680;DHT22;9989;48.962;9.182;2023-08-06T02:13:00;17.40;99.90
19680;DHT22;9989;48.962;9.182;2023-08-06T02:15:26;17.40;99.90
19680;DHT22;9989;48.962;9.182;2023-08-06T02:17:52;17.30;99.90
19680;DHT22;9989;48.962;9.182;2023-08-06T02:20:17;17.30;99.90
19680;DHT22;9989;48.962;9.182;2023-08-06T02:22:43;17.30;99.90
19680;DHT22;9989;48.962;9.182;2023-08-06T02:25:09;17.30;99.90
19680;DHT22;9989;48.962;9.182;2023-08-06T02:27:34;17.30;99.90
19680;DHT22;9989;48.962;9.182;2023-08-06T02:30:00;17.30;99.90
19680;DHT22;9989;48.962;9.182;2023-08-06T02:32:26;17.30;99.90
19680;DHT22;9989;48.962;9.182;2023-08-06T02:34:51;17.30;99.90
19680;DHT22;9989;48.962;9.182;2023-08-06T02:37:17;17.30;99.90
19680;DHT22;9989;48.962;9.182;2023-08-06T02:39:43;17.30;99.90
19680;DHT22;9989;48.962;9.182;2023-08-06T02:42:08;17.30;99.90
19680;DHT22;9989;48.962;9.182;2023-08-06T02:44:35;17.30;99.90
19680;DHT22;9989;48.962;9.182;2023-08-06T02:47:01;17.30;99.90
19680;DHT22;9989;48.962;9.182;2023-08-06T02:49:27;17.30;99.90
19680;DHT22;9989;48.962;9.182;2023-08-06T02:51:53;17.30;99.90
19680;DHT22;9989;48.962;9.182;2023-08-06T02:54:19;17.40;99.90
19680;DHT22;9989;48.962;9.182;2023-08-06T02:56:47;17.40;99.90
19680;DHT22;9989;48.962;9.182;2023-08-06T02:59:13;17.40;99.90
19680;DHT22;9989;48.962;9.182;2023-08-06T03:01:39;17.40;99.90
19680;DHT22;9989;48.962;9.182;2023-08-06T03:04:05;17.30;99.90
19680;DHT22;9989;48.962;9.182;2023-08-06T03:06:31;17.40;99.90
19680;DHT22;9989;48.962;9.182;2023-08-06T03:08:57;17.30;99.90
19680;DHT22;9989;48.962;9.182;2023-08-06T03:11:23;17.30;99.90
19680;DHT22;9989;48.962;9.182;2023-08-06T03:13:48;17.30;99.90
19680;DHT22;9989;48.962;9.182;2023-08-06T03:16:14;17.30;99.90
19680;DHT22;9989;48.962;9.182;2023-08-06T03:18:40;17.30;99.90
19680;DHT22;9989;48.962;9.182;2023-08-06T03:21:06;17.30;99.90
19680;DHT22;9989;48.962;9.182;2023-08-06T03:23:31;17.20;99.90
19680;DHT22;9989;48.962;9.182;2023-08-06T03:26:04;17.20;99.90
19680;DHT22;9989;48.962;9.182;2023-08-06T03:28:29;17.20;99.90
19680;DHT22;9989;48.962;9.182;2023-08-06T03:31:04;17.20;99.90
19680;DHT22;9989;48.962;9.182;2023-08-06T03:33:30;17.10;99.90
19680;DHT22;9989;48.962;9.182;2023-08-06T03:35:56;17.10;99.90
19680;DHT22;9989;48.962;9.182;2023-08-06T03:38:22;17.10;99.90
19680;DHT22;9989;48.962;9.182;2023-08-06T03:40:48;17.10;99.90
19680;DHT22;9989;48.962;9.182;2023-08-06T03:43:15;17.10;99.90
19680;DHT22;9989;48.962;9.182;2023-08-06T03:45:40;17.10;99.90
19680;DHT22;9989;48.962;9.182;2023-08-06T03:48:07;17.00;99.90
19680;DHT22;9989;48.962;9.182;2023-08-06T03:50:32;16.90;99.90
19680;DHT22;9989;48.962;9.182;2023-08-06T03:52:58;16.90;99.90
19680;DHT22;9989;48.962;9.182;2023-08-06T03:55:23;16.90;99.90
19680;DHT22;9989;48.962;9.182;2023-08-06T03:57:49;16.90;99.90
19680;DHT22;9989;48.962;9.182;2023-08-06T04:00:15;16.80;99.90
19680;DHT22;9989;48.962;9.182;2023-08-06T04:02:40;16.80;99.90
19680;DHT22;9989;48.962;9.182;2023-08-06T04:05:06;16.80;99.90
19680;DHT22;9989;48.962;9.182;2023-08-06T04:07:32;16.80;99.90
19680;DHT22;9989;48.962;9.182;2023-08-06T04:10:00;16.80;99.90
19680;DHT22;9989;48.962;9.182;2023-08-06T04:12:27;16.80;99.90
19680;DHT22;9989;48.962;9.182;2023-08-06T04:14:53;16.80;99.90
19680;DHT22;9989;48.962;9.182;2023-08-06T04:17:20;16.80;99.90
19680;DHT22;9989;48.962;9.182;2023-08-06T04:19:50;16.80;99.90
19680;DHT22;9989;48.962;9.182;2023-08-06T04:22:16;16.80;99.90
19680;DHT22;9989;48.962;9.182;2023-08-06T04:24:42;16.90;99.90
19680;DHT22;9989;48.962;9.182;2023-08-06T04:27:09;16.80;99.90
19680;DHT22;9989;48.962;9.182;2023-08-06T04:29:35;16.80;99.90
19680;DHT22;9989;48.962;9.182;2023-08-06T04:32:01;16.80;99.90
19680;DHT22;9989;48.962;9.182;2023-08-06T04:34:27;16.80;99.90
19680;DHT22;9989;48.962;9.182;2023-08-06T04:36:52;16.80;99.90
19680;DHT22;9989;48.962;9.182;2023-08-06T04:39:18;16.70;99.90
19680;DHT22;9989;48.962;9.182;2023-08-06T04:41:44;16.70;99.90
19680;DHT22;9989;48.962;9.182;2023-08-06T04:44:09;16.70;99.90
19680;DHT22;9989;48.962;9.182;2023-08-06T04:46:35;16.60;99.90
19680;DHT22;9989;48.962;9.182;2023-08-06T04:49:01;16.70;99.90
19680;DHT22;9989;48.962;9.182;2023-08-06T04:51:26;16.60;99.90
19680;DHT22;9989;48.962;9.182;2023-08-06T04:53:52;16.60;99.90
19680;DHT22;9989;48.962;9.182;2023-08-06T04:56:18;16.50;99.90
19680;DHT22;9989;48.962;9.182;2023-08-06T04:58:43;16.50;99.90
19680;DHT22;9989;48.962;9.182;2023-08-06T05:01:09;16.50;99.90
19680;DHT22;9989;48.962;9.182;2023-08-06T05:03:35;16.50;99.90
19680;DHT22;9989;48.962;9.182;2023-08-06T05:06:00;16.50;99.90
19680;DHT22;9989;48.962;9.182;2023-08-06T05:08:26;16.40;99.90
19680;DHT22;9989;48.962;9.182;2023-08-06T05:10:52;16.40;99.90
19680;DHT22;9989;48.962;9.182;2023-08-06T05:13:17;16.40;99.90
19680;DHT22;9989;48.962;9.182;2023-08-06T05:15:43;16.40;99.90
19680;DHT22;9989;48.962;9.182;2023-08-06T05:18:10;16.40;99.90
19680;DHT22;9989;48.962;9.182;2023-08-06T05:20:38;16.40;99.90
19680;DHT22;9989;48.962;9.182;2023-08-06T05:23:04;16.50;99.90
19680;DHT22;9989;48.962;9.182;2023-08-06T05:25:30;16.50;99.90
19680;DHT22;9989;48.962;9.182;2023-08-06T05:27:55;16.50;99.90
19680;DHT22;9989;48.962;9.182;2023-08-06T05:30:21;16.60;99.90
19680;DHT22;9989;48.962;9.182;2023-08-06T05:32:47;16.60;99.90
19680;DHT22;9989;48.962;9.182;2023-08-06T05:35:12;16.60;99.90
19680;DHT22;9989;48.962;9.182;2023-08-06T05:37:38;16.70;99.90
19680;DHT22;9989;48.962;9.182;2023-08-06T05:40:04;16.80;99.90
19680;DHT22;9989;48.962;9.182;2023-08-06T05:42:30;16.90;99.90
19680;DHT22;9989;48.962;9.182;2023-08-06T05:44:56;16.90;99.90
19680;DHT22;9989;48.962;9.182;2023-08-06T05:47:21;16.90;99.90
19680;DHT22;9989;48.962;9.182;2023-08-06T05:49:47;17.00;99.90
19680;DHT22;9989;48.962;9.182;2023-08-06T05:52:13;17.00;99.90
19680;DHT22;9989;48.962;9.182;2023-08-06T05:54:38;16.90;99.90
19680;DHT22;9989;48.962;9.182;2023-08-06T05:57:06;16.90;99.90
19680;DHT22;9989;48.962;9.182;2023-08-06T05:59:31;16.90;99.90
19680;DHT22;9989;48.962;9.182;2023-08-06T06:01:57;16.80;99.90
19680;DHT22;9989;48.962;9.182;2023-08-06T06:04:25;16.90;99.90
19680;DHT22;9989;48.962;9.182;2023-08-06T06:06:50;16.90;99.90
19680;DHT22;9989;48.962;9.182;2023-08-06T06:09:16;16.80;99.90
19680;DHT22;9989;48.962;9.182;2023-08-06T06:11:42;16.80;99.90
19680;DHT22;9989;48.962;9.182;2023-08-06T06:14:07;16.70;99.90
19680;DHT22;9989;48.962;9.182;2023-08-06T06:16:34;16.60;99.90
19680;DHT22;9989;48.962;9.182;2023-08-06T06:18:59;16.60;99.90
19680;DHT22;9989;48.962;9.182;2023-08-06T06:21:25;16.50;99.90
19680;DHT22;9989;48.962;9.182;2023-08-06T06:23:50;16.50;99.90
19680;DHT22;9989;48.962;9.182;2023-08-06T06:26:19;16.50;99.90
19680;DHT22;9989;48.962;9.182;2023-08-06T06:28:45;16.50;99.90
19680;DHT22;9989;48.962;9.182;2023-08-06T06:31:10;16.60;99.90
19680;DHT22;9989;48.962;9.182;2023-08-06T06:33:36;16.60;99.90
19680;DHT22;9989;48.962;9.182;2023-08-06T06:36:02;16.60;99.90
19680;DHT22;9989;48.962;9.182;2023-08-06T06:38:29;16.60;99.90
19680;DHT22;9989;48.962;9.182;2023-08-06T06:40:58;16.70;99.90
19680;DHT22;9989;48.962;9.182;2023-08-06T06:43:24;16.70;99.90
19680;DHT22;9989;48.962;9.182;2023-08-06T06:45:55;16.80;99.90
19680;DHT22;9989;48.962;9.182;2023-08-06T06:48:21;16.80;99.90
19680;DHT22;9989;48.962;9.182;2023-08-06T06:50:47;16.70;99.90
19680;DHT22;9989;48.962;9.182;2023-08-06T06:53:14;16.70;99.90
19680;DHT22;9989;48.962;9.182;2023-08-06T06:55:39;16.70;99.90
19680;DHT22;9989;48.962;9.182;2023-08-06T06:58:05;16.70;99.90
19680;DHT22;9989;48.962;9.182;2023-08-06T07:00:31;16.70;99.90
19680;DHT22;9989;48.962;9.182;2023-08-06T07:02:56;16.70;99.90
19680;DHT22;9989;48.962;9.182;2023-08-06T07:05:22;16.70;99.90
19680;DHT22;9989;48.962;9.182;2023-08-06T07:07:48;16.70;99.90
19680;DHT22;9989;48.962;9.182;2023-08-06T07:10:13;16.70;99.90
19680;DHT22;9989;48.962;9.182;2023-08-06T07:12:39;16.60;99.90
19680;DHT22;9989;48.962;9.182;2023-08-06T07:15:06;16.70;99.90
19680;DHT22;9989;48.962;9.182;2023-08-06T07:17:32;16.70;99.90
19680;DHT22;9989;48.962;9.182;2023-08-06T07:19:58;16.70;99.90
19680;DHT22;9989;48.962;9.182;2023-08-06T07:22:23;16.70;99.90
19680;DHT22;9989;48.962;9.182;2023-08-06T07:24:49;16.70;99.90
19680;DHT22;9989;48.962;9.182;2023-08-06T07:27:15;16.70;99.90
19680;DHT22;9989;48.962;9.182;2023-08-06T07:29:40;16.60;99.90
19680;DHT22;9989;48.962;9.182;2023-08-06T07:32:07;16.60;99.90
19680;DHT22;9989;48.962;9.182;2023-08-06T07:34:33;16.60;99.90
19680;DHT22;9989;48.962;9.182;2023-08-06T07:36:58;16.60;99.90
19680;DHT22;9989;48.962;9.182;2023-08-06T07:39:25;16.60;99.90
19680;DHT22;9989;48.962;9.182;2023-08-06T07:41:50;16.60;99.90
19680;DHT22;9989;48.962;9.182;2023-08-06T07:44:16;16.60;99.90
19680;DHT22;9989;48.962;9.182;2023-08-06T07:46:42;16.60;99.90
19680;DHT22;9989;48.962;9.182;2023-08-06T07:49:09;16.60;99.90
19680;DHT22;9989;48.962;9.182;2023-08-06T07:51:36;16.60;99.90
19680;DHT22;9989;48.962;9.182;2023-08-06T07:54:02;16.60;99.90
19680;DHT22;9989;48.962;9.182;2023-08-06T07:56:28;16.60;99.90
19680;DHT22;9989;48.962;9.182;2023-08-06T07:58:54;16.60;99.90
19680;DHT22;9989;48.962;9.182;2023-08-06T08:01:20;16.60;99.90
19680;DHT22;9989;48.962;9.182;2023-08-06T08:03:46;16.60;99.90
19680;DHT22;9989;48.962;9.182;2023-08-06T08:06:11;16.50;99.90
19680;DHT22;9989;48.962;9.182;2023-08-06T08:08:37;16.50;99.90
19680;DHT22;9989;48.962;9.182;2023-08-06T08:11:05;16.50;99.90
19680;DHT22;9989;48.962;9.182;2023-08-06T08:13:30;16.40;99.90
19680;DHT22;9989;48.962;9.182;2023-08-06T08:15:57;16.50;99.90
19680;DHT22;9989;48.962;9.182;2023-08-06T08:18:24;16.50;99.90
19680;DHT22;9989;48.962;9.182;2023-08-06T08:20:49;16.50;99.90
19680;DHT22;9989;48.962;9.182;2023-08-06T08:23:15;16.60;99.90
19680;DHT22;9989;48.962;9.182;2023-08-06T08:25:41;16.70;99.90
19680;DHT22;9989;48.962;9.182;2023-08-06T08:28:07;16.90;99.90
19680;DHT22;9989;48.962;9.182;2023-08-06T08:30:33;17.10;99.90
19680;DHT22;9989;48.962;9.182;2023-08-06T08:32:58;17.20;99.90
19680;DHT22;9989;48.962;9.182;2023-08-06T08:35:24;17.30;99.90
19680;DHT22;9989;48.962;9.182;2023-08-06T08:37:50;17.40;99.90
19680;DHT22;9989;48.962;9.182;2023-08-06T08:40:16;17.40;99.90
19680;DHT22;9989;48.962;9.182;2023-08-06T08:42:43;17.50;99.90
19680;DHT22;9989;48.962;9.182;2023-08-06T08:45:15;17.60;99.90
19680;DHT22;9989;48.962;9.182;2023-08-06T08:47:42;17.80;99.90
19680;DHT22;9989;48.962;9.182;2023-08-06T08:50:12;17.80;99.90
19680;DHT22;9989;48.962;9.182;2023-08-06T08:52:39;17.90;99.90
19680;DHT22;9989;48.962;9.182;2023-08-06T08:55:07;17.90;99.90
19680;DHT22;9989;48.962;9.182;2023-08-06T08:57:33;18.00;99.90
19680;DHT22;9989;48.962;9.182;2023-08-06T08:59:59;18.00;99.90
19680;DHT22;9989;48.962;9.182;2023-08-06T09:02:28;18.00;99.90
19680;DHT22;9989;48.962;9.182;2023-08-06T09:04:57;18.10;99.90
19680;DHT22;9989;48.962;9.182;2023-08-06T09:07:25;18.10;99.90
19680;DHT22;9989;48.962;9.182;2023-08-06T09:09:52;18.00;99.90
19680;DHT22;9989;48.962;9.182;2023-08-06T09:12:18;17.80;99.90
19680;DHT22;9989;48.962;9.182;2023-08-06T09:14:44;17.80;99.90
19680;DHT22;9989;48.962;9.182;2023-08-06T09:17:10;17.70;99.90
19680;DHT22;9989;48.962;9.182;2023-08-06T09:19:36;17.70;99.90
19680;DHT22;9989;48.962;9.182;2023-08-06T09:22:02;17.70;99.90
19680;DHT22;9989;48.962;9.182;2023-08-06T09:24:28;17.60;99.90
19680;DHT22;9989;48.962;9.182;2023-08-06T09:26:54;17.60;99.90
19680;DHT22;9989;48.962;9.182;2023-08-06T09:29:20;17.60;99.90
19680;DHT22;9989;48.962;9.182;2023-08-06T09:31:49;17.70;99.90
19680;DHT22;9989;48.962;9.182;2023-08-06T09:34:18;17.80;99.90
19680;DHT22;9989;48.962;9.182;2023-08-06T09:36:51;18.10;99.90
19680;DHT22;9989;48.962;9.182;2023-08-06T09:39:38;18.40;99.90
19680;DHT22;9989;48.962;9.182;2023-08-06T09:42:04;18.70;99.90
19680;DHT22;9989;48.962;9.182;2023-08-06T09:44:32;18.80;99.90
19680;DHT22;9989;48.962;9.182;2023-08-06T09:46:59;18.90;99.90
19680;DHT22;9989;48.962;9.182;2023-08-06T09:49:40;18.90;99.90
19680;DHT22;9989;48.962;9.182;2023-08-06T09:52:14;19.00;99.90
19680;DHT22;9989;48.962;9.182;2023-08-06T09:54:43;19.00;99.90
19680;DHT22;9989;48.962;9.182;2023-08-06T09:57:09;18.80;99.90
19680;DHT22;9989;48.962;9.182;2023-08-06T09:59:39;18.60;99.90
19680;DHT22;9989;48.962;9.182;2023-08-06T10:02:12;18.40;99.90
19680;DHT22;9989;48.962;9.182;2023-08-06T10:04:39;18.40;99.90
19680;DHT22;9989;48.962;9.182;2023-08-06T10:07:05;18.40;99.90
19680;DHT22;9989;48.962;9.182;2023-08-06T10:09:30;18.40;99.90
19680;DHT22;9989;48.962;9.182;2023-08-06T10:11:58;18.40;99.90
19680;DHT22;9989;48.962;9.182;2023-08-06T10:14:33;18.30;99.90
19680;DHT22;9989;48.962;9.182;2023-08-06T10:17:00;18.30;99.90
19680;DHT22;9989;48.962;9.182;2023-08-06T10:19:27;18.30;99.90
19680;DHT22;9989;48.962;9.182;2023-08-06T10:22:19;18.20;99.90
19680;DHT22;9989;48.962;9.182;2023-08-06T10:24:54;18.10;99.90
19680;DHT22;9989;48.962;9.182;2023-08-06T10:27:31;18.10;99.90
19680;DHT22;9989;48.962;9.182;2023-08-06T10:30:29;18.20;99.90
19680;DHT22;9989;48.962;9.182;2023-08-06T10:33:01;18.30;99.90
19680;DHT22;9989;48.962;9.182;2023-08-06T10:35:38;18.20;99.90
19680;DHT22;9989;48.962;9.182;2023-08-06T10:38:07;18.10;99.90
19680;DHT22;9989;48.962;9.182;2023-08-06T10:40:33;18.10;99.90
19680;DHT22;9989;48.962;9.182;2023-08-06T10:43:00;18.00;99.90
19680;DHT22;9989;48.962;9.182;2023-08-06T10:45:26;17.90;99.90
19680;DHT22;9989;48.962;9.182;2023-08-06T10:47:55;17.90;99.90
19680;DHT22;9989;48.962;9.182;2023-08-06T10:50:24;17.90;99.90
19680;DHT22;9989;48.962;9.182;2023-08-06T10:52:50;17.80;99.90
19680;DHT22;9989;48.962;9.182;2023-08-06T10:55:42;17.80;99.90
19680;DHT22;9989;48.962;9.182;2023-08-06T10:58:08;17.70;99.90
19680;DHT22;9989;48.962;9.182;2023-08-06T11:00:33;17.70;99.90
19680;DHT22;9989;48.962;9.182;2023-08-06T11:03:00;17.60;99.90
19680;DHT22;9989;48.962;9.182;2023-08-06T11:05:26;17.50;99.90
19680;DHT22;9989;48.962;9.182;2023-08-06T11:07:51;17.50;99.90
19680;DHT22;9989;48.962;9.182;2023-08-06T11:10:18;17.50;99.90
19680;DHT22;9989;48.962;9.182;2023-08-06T11:12:43;17.40;99.90
19680;DHT22;9989;48.962;9.182;2023-08-06T11:15:09;17.40;99.90
19680;DHT22;9989;48.962;9.182;2023-08-06T11:17:37;17.30;99.90
19680;DHT22;9989;48.962;9.182;2023-08-06T11:20:05;17.30;99.90
19680;DHT22;9989;48.962;9.182;2023-08-06T11:22:31;17.20;99.90
19680;DHT22;9989;48.962;9.182;2023-08-06T11:24:57;17.20;99.90
19680;DHT22;9989;48.962;9.182;2023-08-06T11:27:23;17.10;99.90
19680;DHT22;9989;48.962;9.182;2023-08-06T11:29:48;17.10;99.90
19680;DHT22;9989;48.962;9.182;2023-08-06T11:32:14;17.10;99.90
19680;DHT22;9989;48.962;9.182;2023-08-06T11:34:40;17.20;99.90
19680;DHT22;9989;48.962;9.182;2023-08-06T11:37:07;17.10;99.90
19680;DHT22;9989;48.962;9.182;2023-08-06T11:39:37;17.10;99.90
19680;DHT22;9989;48.962;9.182;2023-08-06T11:42:04;17.00;99.90
19680;DHT22;9989;48.962;9.182;2023-08-06T11:44:31;16.80;99.90
19680;DHT22;9989;48.962;9.182;2023-08-06T11:46:58;16.70;99.90
19680;DHT22;9989;48.962;9.182;2023-08-06T11:49:47;16.60;99.90
19680;DHT22;9989;48.962;9.182;2023-08-06T11:52:24;16.50;99.90
19680;DHT22;9989;48.962;9.182;2023-08-06T11:55:07;16.40;99.90
19680;DHT22;9989;48.962;9.182;2023-08-06T11:57:37;16.20;99.90
19680;DHT22;9989;48.962;9.182;2023-08-06T12:00:11;16.20;99.90
19680;DHT22;9989;48.962;9.182;2023-08-06T12:02:41;16.10;99.90
19680;DHT22;9989;48.962;9.182;2023-08-06T12:05:11;16.00;99.90
19680;DHT22;9989;48.962;9.182;2023-08-06T12:07:42;16.00;99.90
19680;DHT22;9989;48.962;9.182;2023-08-06T12:10:09;16.00;99.90
19680;DHT22;9989;48.962;9.182;2023-08-06T12:12:35;16.00;99.90
19680;DHT22;9989;48.962;9.182;2023-08-06T12:15:03;15.90;99.90
19680;DHT22;9989;48.962;9.182;2023-08-06T12:17:29;15.90;99.90
19680;DHT22;9989;48.962;9.182;2023-08-06T12:19:54;15.80;99.90
19680;DHT22;9989;48.962;9.182;2023-08-06T12:22:20;15.80;99.90
19680;DHT22;9989;48.962;9.182;2023-08-06T12:24:46;15.70;99.90
19680;DHT22;9989;48.962;9.182;2023-08-06T12:27:13;15.70;99.90
19680;DHT22;9989;48.962;9.182;2023-08-06T12:29:47;15.70;99.90
19680;DHT22;9989;48.962;9.182;2023-08-06T12:32:13;15.70;99.90
19680;DHT22;9989;48.962;9.182;2023-08-06T12:34:42;15.70;99.90
19680;DHT22;9989;48.962;9.182;2023-08-06T12:37:09;15.70;99.90
19680;DHT22;9989;48.962;9.182;2023-08-06T12:39:35;15.70;99.90
19680;DHT22;9989;48.962;9.182;2023-08-06T12:42:02;15.70;99.90
19680;DHT22;9989;48.962;9.182;2023-08-06T12:44:29;15.60;99.90
19680;DHT22;9989;48.962;9.182;2023-08-06T12:46:54;15.60;99.90
19680;DHT22;9989;48.962;9.182;2023-08-06T12:49:21;15.60;99.90
19680;DHT22;9989;48.962;9.182;2023-08-06T12:51:50;15.70;99.90
19680;DHT22;9989;48.962;9.182;2023-08-06T12:54:22;15.70;99.90
19680;DHT22;9989;48.962;9.182;2023-08-06T12:56:48;15.80;99.90
19680;DHT22;9989;48.962;9.182;2023-08-06T12:59:15;15.90;99.90
19680;DHT22;9989;48.962;9.182;2023-08-06T13:01:42;16.00;99.90
19680;DHT22;9989;48.962;9.182;2023-08-06T13:04:07;16.10;99.90
19680;DHT22;9989;48.962;9.182;2023-08-06T13:06:33;16.20;99.90
19680;DHT22;9989;48.962;9.182;2023-08-06T13:09:06;16.30;99.90
19680;DHT22;9989;48.962;9.182;2023-08-06T13:11:32;16.40;99.90
19680;DHT22;9989;48.962;9.182;2023-08-06T13:14:04;16.60;99.90
19680;DHT22;9989;48.962;9.182;2023-08-06T13:16:30;16.70;99.90
19680;DHT22;9989;48.962;9.182;2023-08-06T13:18:56;16.70;99.90
19680;DHT22;9989;48.962;9.182;2023-08-06T13:21:22;16.70;99.90
19680;DHT22;9989;48.962;9.182;2023-08-06T13:23:47;16.80;99.90
19680;DHT22;9989;48.962;9.182;2023-08-06T13:26:13;16.80;99.90
19680;DHT22;9989;48.962;9.182;2023-08-06T13:28:41;16.80;99.90
19680;DHT22;9989;48.962;9.182;2023-08-06T13:31:07;16.80;99.90
19680;DHT22;9989;48.962;9.182;2023-08-06T13:33:32;16.80;99.90
19680;DHT22;9989;48.962;9.182;2023-08-06T13:35:58;16.80;99.90
19680;DHT22;9989;48.962;9.182;2023-08-06T13:38:24;16.90;99.90
19680;DHT22;9989;48.962;9.182;2023-08-06T13:40:49;16.90;99.90
19680;DHT22;9989;48.962;9.182;2023-08-06T13:43:15;16.80;99.90
19680;DHT22;9989;48.962;9.182;2023-08-06T13:45:42;16.90;99.90
19680;DHT22;9989;48.962;9.182;2023-08-06T13:48:08;16.80;99.90
19680;DHT22;9989;48.962;9.182;2023-08-06T13:50:36;16.80;99.90
19680;DHT22;9989;48.962;9.182;2023-08-06T13:53:02;16.80;99.90
19680;DHT22;9989;48.962;9.182;2023-08-06T13:55:28;16.80;99.90
19680;DHT22;9989;48.962;9.182;2023-08-06T13:57:54;16.80;99.90
19680;DHT22;9989;48.962;9.182;2023-08-06T14:00:19;16.90;99.90
19680;DHT22;9989;48.962;9.182;2023-08-06T14:02:45;17.00;99.90
19680;DHT22;9989;48.962;9.182;2023-08-06T14:05:11;17.00;99.90
19680;DHT22;9989;48.962;9.182;2023-08-06T14:07:36;17.10;99.90
19680;DHT22;9989;48.962;9.182;2023-08-06T14:10:02;17.20;99.90
19680;DHT22;9989;48.962;9.182;2023-08-06T14:12:28;17.50;99.90
19680;DHT22;9989;48.962;9.182;2023-08-06T14:14:54;17.70;99.90
19680;DHT22;9989;48.962;9.182;2023-08-06T14:17:19;17.90;99.90
19680;DHT22;9989;48.962;9.182;2023-08-06T14:19:45;18.00;99.90
19680;DHT22;9989;48.962;9.182;2023-08-06T14:22:11;18.00;99.90
19680;DHT22;9989;48.962;9.182;2023-08-06T14:24:37;18.00;99.90
19680;DHT22;9989;48.962;9.182;2023-08-06T14:27:02;18.00;99.90
19680;DHT22;9989;48.962;9.182;2023-08-06T14:29:29;17.90;99.90
19680;DHT22;9989;48.962;9.182;2023-08-06T14:31:55;17.80;99.90
19680;DHT22;9989;48.962;9.182;2023-08-06T14:34:21;17.70;99.90
19680;DHT22;9989;48.962;9.182;2023-08-06T14:36:46;17.60;99.90
19680;DHT22;9989;48.962;9.182;2023-08-06T14:39:12;17.50;99.90
19680;DHT22;9989;48.962;9.182;2023-08-06T14:41:37;17.40;99.90
19680;DHT22;9989;48.962;9.182;2023-08-06T14:44:03;17.30;99.90
19680;DHT22;9989;48.962;9.182;2023-08-06T14:46:29;17.10;99.90
19680;DHT22;9989;48.962;9.182;2023-08-06T14:48:55;17.00;99.90
19680;DHT22;9989;48.962;9.182;2023-08-06T14:51:20;16.90;99.90
19680;DHT22;9989;48.962;9.182;2023-08-06T14:53:46;16.70;99.90
19680;DHT22;9989;48.962;9.182;2023-08-06T14:56:12;16.60;99.90
19680;DHT22;9989;48.962;9.182;2023-08-06T14:58:41;16.50;99.90
19680;DHT22;9989;48.962;9.182;2023-08-06T15:01:07;16.40;99.90
19680;DHT22;9989;48.962;9.182;2023-08-06T15:03:33;16.40;99.90
19680;DHT22;9989;48.962;9.182;2023-08-06T15:05:59;16.30;99.90
19680;DHT22;9989;48.962;9.182;2023-08-06T15:08:25;16.30;99.90
19680;DHT22;9989;48.962;9.182;2023-08-06T15:10:51;16.40;99.90
19680;DHT22;9989;48.962;9.182;2023-08-06T15:13:20;16.40;99.90
19680;DHT22;9989;48.962;9.182;2023-08-06T15:15:47;16.40;99.90
19680;DHT22;9989;48.962;9.182;2023-08-06T15:18:13;16.40;99.90
19680;DHT22;9989;48.962;9.182;2023-08-06T15:20:38;16.50;99.90
19680;DHT22;9989;48.962;9.182;2023-08-06T15:23:04;16.50;99.90
19680;DHT22;9989;48.962;9.182;2023-08-06T15:25:30;16.60;99.90
19680;DHT22;9989;48.962;9.182;2023-08-06T15:27:55;16.60;99.90
19680;DHT22;9989;48.962;9.182;2023-08-06T15:30:21;16.60;99.90
19680;DHT22;9989;48.962;9.182;2023-08-06T15:32:47;16.70;99.90
19680;DHT22;9989;48.962;9.182;2023-08-06T15:35:13;16.70;99.90
19680;DHT22;9989;48.962;9.182;2023-08-06T15:37:39;16.70;99.90
19680;DHT22;9989;48.962;9.182;2023-08-06T15:40:09;16.60;99.90
19680;DHT22;9989;48.962;9.182;2023-08-06T15:42:34;16.60;99.90
19680;DHT22;9989;48.962;9.182;2023-08-06T15:45:00;16.60;99.90
19680;DHT22;9989;48.962;9.182;2023-08-06T15:47:27;16.60;99.90
19680;DHT22;9989;48.962;9.182;2023-08-06T15:49:52;16.50;99.90
19680;DHT22;9989;48.962;9.182;2023-08-06T15:52:18;16.50;99.90